createdAt,value
2018-04-16T00:01:02.229Z,1004.8
2018-04-16T00:02:04.890Z,1004.8
2018-04-16T00:03:07.831Z,1004.8
2018-04-16T00:04:10.212Z,1004.8
2018-04-16T00:05:12.871Z,1004.8
2018-04-16T00:06:15.550Z,1004.8
2018-04-16T00:07:17.931Z,1004.8
2018-04-16T00:08:20.317Z,1004.7
2018-04-16T00:09:22.976Z,1004.7
2018-04-16T00:10:25.353Z,1004.8
2018-04-16T00:11:27.727Z,1004.7
2018-04-16T00:12:30.414Z,1004.7
2018-04-16T00:13:32.798Z,1004.8
2018-04-16T00:14:35.182Z,1004.8
2018-04-16T00:15:37.549Z,1004.7
2018-04-16T00:16:39.937Z,1004.7
2018-04-16T00:17:42.319Z,1004.7
2018-04-16T00:18:44.695Z,1004.7
2018-04-16T00:19:47.078Z,1004.7
2018-04-16T00:20:49.461Z,1004.7
2018-04-16T00:21:51.825Z,1004.7
2018-04-16T00:22:54.214Z,1004.6
2018-04-16T00:23:56.589Z,1004.6
2018-04-16T00:24:58.973Z,1004.6
2018-04-16T00:26:01.359Z,1004.5
2018-04-16T00:27:03.740Z,1004.6
2018-04-16T00:28:06.122Z,1004.6
2018-04-16T00:29:08.783Z,1004.6
2018-04-16T00:30:11.166Z,1004.5
2018-04-16T00:31:13.550Z,1004.5
2018-04-16T00:32:15.925Z,1004.6
2018-04-16T00:33:18.310Z,1004.5
2018-04-16T00:34:20.683Z,1004.5
2018-04-16T00:35:23.057Z,1004.5
2018-04-16T00:36:25.726Z,1004.5
2018-04-16T00:37:28.103Z,1004.4
2018-04-16T00:38:30.488Z,1004.5
2018-04-16T00:39:33.157Z,1004.4
2018-04-16T00:40:35.541Z,1004.4
2018-04-16T00:41:37.923Z,1004.4
2018-04-16T00:42:40.306Z,1004.4
2018-04-16T00:43:42.682Z,1004.5
2018-04-16T00:44:45.077Z,1004.5
2018-04-16T00:45:47.835Z,1004.5
2018-04-16T00:46:50.210Z,1004.5
2018-04-16T00:47:52.590Z,1004.6
2018-04-16T00:48:54.969Z,1004.6
2018-04-16T00:49:57.340Z,1004.6
2018-04-16T00:50:59.724Z,1004.6
2018-04-16T00:52:02.393Z,1004.6
2018-04-16T00:53:05.166Z,1004.6
2018-04-16T00:54:08.231Z,1004.6
2018-04-16T00:55:10.611Z,1004.6
2018-04-16T00:56:12.987Z,1004.6
2018-04-16T00:57:15.374Z,1004.7
2018-04-16T00:58:17.753Z,1004.6
2018-04-16T00:59:20.704Z,1004.6
2018-04-16T01:00:23.074Z,1004.7
2018-04-16T01:01:25.764Z,1004.6
2018-04-16T01:02:28.149Z,1004.6
2018-04-16T01:03:30.540Z,1004.6
2018-04-16T01:04:32.912Z,1004.6
2018-04-16T01:05:35.291Z,1004.5
2018-04-16T01:06:37.666Z,1004.6
2018-04-16T01:07:40.066Z,1004.6
2018-04-16T01:08:42.445Z,1004.6
2018-04-16T01:09:44.816Z,1004.6
2018-04-16T01:10:47.191Z,1004.6
2018-04-16T01:11:49.573Z,1004.7
2018-04-16T01:12:51.944Z,1004.7
2018-04-16T01:13:54.638Z,1004.6
2018-04-16T01:14:57.283Z,1004.6
2018-04-16T01:15:59.667Z,1004.6
2018-04-16T01:17:02.046Z,1004.6
2018-04-16T01:18:04.424Z,1004.6
2018-04-16T01:19:06.806Z,1004.5
2018-04-16T01:20:09.185Z,1004.5
2018-04-16T01:21:11.566Z,1004.5
2018-04-16T01:22:13.962Z,1004.6
2018-04-16T01:23:16.343Z,1004.5
2018-04-16T01:24:19.022Z,1004.5
2018-04-16T01:25:21.403Z,1004.5
2018-04-16T01:26:24.171Z,1004.5
2018-04-16T01:27:26.551Z,1004.5
2018-04-16T01:28:29.207Z,1004.5
2018-04-16T01:29:31.613Z,1004.5
2018-04-16T01:30:33.983Z,1004.5
2018-04-16T01:31:36.354Z,1004.5
2018-04-16T01:32:38.746Z,1004.4
2018-04-16T01:33:41.125Z,1004.4
2018-04-16T01:34:43.511Z,1004.4
2018-04-16T01:35:45.888Z,1004.4
2018-04-16T01:36:48.262Z,1004.4
2018-04-16T01:37:50.636Z,1004.4
2018-04-16T01:38:53.029Z,1004.4
2018-04-16T01:39:55.697Z,1004.4
2018-04-16T01:40:58.082Z,1004.4
2018-04-16T01:42:00.748Z,1004.4
2018-04-16T01:43:03.121Z,1004.3
2018-04-16T01:44:05.507Z,1004.4
2018-04-16T01:45:07.882Z,1004.4
2018-04-16T01:46:10.259Z,1004.4
2018-04-16T01:47:12.639Z,1004.4
2018-04-16T01:48:15.019Z,1004.4
2018-04-16T01:49:17.958Z,1004.5
2018-04-16T01:50:20.342Z,1004.5
2018-04-16T01:51:22.709Z,1004.5
2018-04-16T01:52:25.085Z,1004.4
2018-04-16T01:53:27.751Z,1004.5
2018-04-16T01:54:30.131Z,1004.5
2018-04-16T01:55:32.506Z,1004.5
2018-04-16T01:56:34.878Z,1004.4
2018-04-16T01:57:37.538Z,1004.3
2018-04-16T01:58:40.210Z,1004.4
2018-04-16T01:59:42.590Z,1004.4
2018-04-16T02:00:44.975Z,1004.5
2018-04-16T02:01:47.355Z,1004.5
2018-04-16T02:02:50.025Z,1004.5
2018-04-16T02:03:52.402Z,1004.4
2018-04-16T02:04:55.067Z,1004.4
2018-04-16T02:05:57.447Z,1004.4
2018-04-16T02:07:00.118Z,1004.4
2018-04-16T02:08:02.771Z,1004.5
2018-04-16T02:09:05.155Z,1004.5
2018-04-16T02:10:07.533Z,1004.5
2018-04-16T02:11:10.303Z,1004.4
2018-04-16T02:12:12.680Z,1004.4
2018-04-16T02:13:15.064Z,1004.5
2018-04-16T02:14:17.753Z,1004.6
2018-04-16T02:15:20.131Z,1004.6
2018-04-16T02:16:22.525Z,1004.6
2018-04-16T02:17:24.896Z,1004.5
2018-04-16T02:18:27.662Z,1004.6
2018-04-16T02:19:30.037Z,1004.6
2018-04-16T02:20:32.700Z,1004.7
2018-04-16T02:21:35.084Z,1004.8
2018-04-16T02:22:37.749Z,1004.7
2018-04-16T02:23:40.129Z,1004.7
2018-04-16T02:24:42.513Z,1004.7
2018-04-16T02:25:44.892Z,1004.8
2018-04-16T02:26:47.673Z,1004.8
2018-04-16T02:27:50.058Z,1004.8
2018-04-16T02:28:52.763Z,1004.9
2018-04-16T02:29:55.427Z,1004.8
2018-04-16T02:30:58.084Z,1004.8
2018-04-16T02:32:01.141Z,1004.8
2018-04-16T02:33:03.815Z,1004.8
2018-04-16T02:34:06.197Z,1004.8
2018-04-16T02:35:08.957Z,1004.8
2018-04-16T02:36:11.345Z,1004.8
2018-04-16T02:37:13.714Z,1004.8
2018-04-16T02:38:16.390Z,1004.8
2018-04-16T02:39:18.757Z,1004.8
2018-04-16T02:40:21.160Z,1004.7
2018-04-16T02:41:24.195Z,1004.8
2018-04-16T02:42:26.583Z,1004.7
2018-04-16T02:43:28.962Z,1004.7
2018-04-16T02:44:32.014Z,1004.7
2018-04-16T02:45:34.399Z,1004.7
2018-04-16T02:46:37.452Z,1004.8
2018-04-16T02:47:40.515Z,1004.7
2018-04-16T02:48:42.899Z,1004.7
2018-04-16T02:49:45.585Z,1004.7
2018-04-16T02:50:47.974Z,1004.7
2018-04-16T02:51:50.624Z,1004.7
2018-04-16T02:52:53.391Z,1004.7
2018-04-16T02:53:56.161Z,1004.6
2018-04-16T02:54:59.402Z,1004.6
2018-04-16T02:56:01.792Z,1004.7
2018-04-16T02:57:04.474Z,1004.7
2018-04-16T02:58:06.849Z,1004.7
2018-04-16T02:59:09.511Z,1004.7
2018-04-16T03:00:12.281Z,1004.6
2018-04-16T03:01:15.213Z,1004.6
2018-04-16T03:02:18.282Z,1004.6
2018-04-16T03:03:20.939Z,1004.6
2018-04-16T03:04:23.309Z,1004.6
2018-04-16T03:05:25.985Z,1004.5
2018-04-16T03:06:28.360Z,1004.6
2018-04-16T03:07:30.739Z,1004.5
2018-04-16T03:08:33.120Z,1004.6
2018-04-16T03:09:35.504Z,1004.6
2018-04-16T03:10:38.163Z,1004.5
2018-04-16T03:11:40.941Z,1004.5
2018-04-16T03:12:43.322Z,1004.5
2018-04-16T03:13:46.016Z,1004.5
2018-04-16T03:14:49.194Z,1004.5
2018-04-16T03:15:51.565Z,1004.4
2018-04-16T03:16:53.950Z,1004.5
2018-04-16T03:17:56.329Z,1004.4
2018-04-16T03:18:58.701Z,1004.5
2018-04-16T03:20:01.077Z,1004.4
2018-04-16T03:21:03.469Z,1004.5
2018-04-16T03:22:05.848Z,1004.5
2018-04-16T03:23:08.238Z,1004.5
2018-04-16T03:24:10.616Z,1004.5
2018-04-16T03:25:13.001Z,1004.5
2018-04-16T03:26:15.374Z,1004.5
2018-04-16T03:27:17.763Z,1004.5
2018-04-16T03:28:20.128Z,1004.5
2018-04-16T03:29:22.511Z,1004.5
2018-04-16T03:30:24.888Z,1004.5
2018-04-16T03:31:28.301Z,1004.5
2018-04-16T03:32:31.978Z,1004.5
2018-04-16T03:33:34.639Z,1004.5
2018-04-16T03:34:37.024Z,1004.5
2018-04-16T03:35:39.419Z,1004.5
2018-04-16T03:36:41.800Z,1004.5
2018-04-16T03:37:44.462Z,1004.4
2018-04-16T03:38:46.847Z,1004.4
2018-04-16T03:39:49.223Z,1004.4
2018-04-16T03:40:51.602Z,1004.4
2018-04-16T03:41:53.986Z,1004.5
2018-04-16T03:42:56.359Z,1004.5
2018-04-16T03:43:58.734Z,1004.5
2018-04-16T03:45:01.124Z,1004.5
2018-04-16T03:46:03.793Z,1004.5
2018-04-16T03:47:06.207Z,1004.5
2018-04-16T03:48:08.585Z,1004.5
2018-04-16T03:49:10.967Z,1004.5
2018-04-16T03:50:13.734Z,1004.5
2018-04-16T03:51:16.112Z,1004.5
2018-04-16T03:52:18.490Z,1004.5
2018-04-16T03:53:20.870Z,1004.5
2018-04-16T03:54:23.266Z,1004.5
2018-04-16T03:55:25.931Z,1004.5
2018-04-16T03:56:28.321Z,1004.5
2018-04-16T03:57:31.288Z,1004.5
2018-04-16T03:58:33.671Z,1004.5
2018-04-16T03:59:36.323Z,1004.5
2018-04-16T04:00:39.088Z,1004.5
2018-04-16T04:01:41.470Z,1004.5
2018-04-16T04:02:44.165Z,1004.5
2018-04-16T04:03:46.823Z,1004.6
2018-04-16T04:04:49.588Z,1004.6
2018-04-16T04:05:51.970Z,1004.7
2018-04-16T04:06:54.353Z,1004.7
2018-04-16T04:07:56.728Z,1004.7
2018-04-16T04:08:59.109Z,1004.7
2018-04-16T04:10:01.514Z,1004.7
2018-04-16T04:11:03.860Z,1004.8
2018-04-16T04:12:06.236Z,1004.7
2018-04-16T04:13:08.621Z,1004.7
2018-04-16T04:14:11.000Z,1004.6
2018-04-16T04:15:13.379Z,1004.6
2018-04-16T04:16:16.069Z,1004.5
2018-04-16T04:17:18.453Z,1004.5
2018-04-16T04:18:20.842Z,1004.6
2018-04-16T04:19:23.507Z,1004.5
2018-04-16T04:20:25.868Z,1004.5
2018-04-16T04:21:28.248Z,1004.5
2018-04-16T04:22:30.630Z,1004.5
2018-04-16T04:23:33.002Z,1004.5
2018-04-16T04:24:35.379Z,1004.6
2018-04-16T04:25:38.056Z,1004.6
2018-04-16T04:26:40.438Z,1004.6
2018-04-16T04:27:43.474Z,1004.5
2018-04-16T04:28:45.858Z,1004.6
2018-04-16T04:29:48.238Z,1004.7
2018-04-16T04:30:50.623Z,1004.7
2018-04-16T04:31:53.006Z,1004.7
2018-04-16T04:32:55.373Z,1004.7
2018-04-16T04:33:58.033Z,1004.7
2018-04-16T04:35:00.420Z,1004.8
2018-04-16T04:36:02.786Z,1004.8
2018-04-16T04:37:05.448Z,1004.7
2018-04-16T04:38:08.283Z,1004.8
2018-04-16T04:39:10.654Z,1004.8
2018-04-16T04:40:13.042Z,1004.8
2018-04-16T04:41:15.415Z,1004.8
2018-04-16T04:42:18.071Z,1004.9
2018-04-16T04:43:20.453Z,1004.8
2018-04-16T04:44:22.830Z,1004.9
2018-04-16T04:45:25.772Z,1004.9
2018-04-16T04:46:28.166Z,1004.9
2018-04-16T04:47:30.539Z,1004.9
2018-04-16T04:48:32.923Z,1004.9
2018-04-16T04:49:35.306Z,1004.9
2018-04-16T04:50:37.689Z,1004.9
2018-04-16T04:51:40.065Z,1004.9
2018-04-16T04:52:42.439Z,1004.8
2018-04-16T04:53:44.819Z,1004.8
2018-04-16T04:54:47.195Z,1004.8
2018-04-16T04:55:49.575Z,1004.8
2018-04-16T04:56:51.951Z,1004.8
2018-04-16T04:57:54.345Z,1004.8
2018-04-16T04:58:57.003Z,1004.8
2018-04-16T04:59:59.398Z,1004.9
2018-04-16T05:01:02.065Z,1005
2018-04-16T05:02:04.447Z,1005
2018-04-16T05:03:07.106Z,1005
2018-04-16T05:04:09.488Z,1005.1
2018-04-16T05:05:12.143Z,1005.1
2018-04-16T05:06:14.528Z,1005.1
2018-04-16T05:07:16.895Z,1005
2018-04-16T05:08:19.285Z,1005.1
2018-04-16T05:09:22.047Z,1005.1
2018-04-16T05:10:24.417Z,1005
2018-04-16T05:11:26.804Z,1005
2018-04-16T05:12:29.192Z,1005.1
2018-04-16T05:13:32.132Z,1005.1
2018-04-16T05:14:34.519Z,1005.1
2018-04-16T05:15:36.897Z,1005.1
2018-04-16T05:16:39.270Z,1005.1
2018-04-16T05:17:41.667Z,1005.2
2018-04-16T05:18:44.036Z,1005.2
2018-04-16T05:19:46.415Z,1005.2
2018-04-16T05:20:48.791Z,1005.2
2018-04-16T05:21:51.449Z,1005.3
2018-04-16T05:22:53.836Z,1005.3
2018-04-16T05:23:56.216Z,1005.2
2018-04-16T05:24:58.597Z,1005.3
2018-04-16T05:26:00.969Z,1005.3
2018-04-16T05:27:03.657Z,1005.3
2018-04-16T05:28:06.034Z,1005.3
2018-04-16T05:29:09.095Z,1005.3
2018-04-16T05:30:11.761Z,1005.3
2018-04-16T05:31:14.422Z,1005.3
2018-04-16T05:32:16.802Z,1005.3
2018-04-16T05:33:19.775Z,1005.3
2018-04-16T05:34:22.136Z,1005.3
2018-04-16T05:35:24.517Z,1005.3
2018-04-16T05:36:26.908Z,1005.3
2018-04-16T05:37:29.295Z,1005.3
2018-04-16T05:38:31.681Z,1005.3
2018-04-16T05:39:34.074Z,1005.3
2018-04-16T05:40:36.719Z,1005.3
2018-04-16T05:41:39.120Z,1005.2
2018-04-16T05:42:41.498Z,1005.3
2018-04-16T05:43:43.880Z,1005.3
2018-04-16T05:44:46.267Z,1005.3
2018-04-16T05:45:48.932Z,1005.3
2018-04-16T05:46:51.315Z,1005.3
2018-04-16T05:47:53.996Z,1005.3
2018-04-16T05:48:56.369Z,1005.3
2018-04-16T05:49:59.130Z,1005.3
2018-04-16T05:51:01.806Z,1005.3
2018-04-16T05:52:05.085Z,1005.3
2018-04-16T05:53:07.750Z,1005.3
2018-04-16T05:54:10.418Z,1005.3
2018-04-16T05:55:12.794Z,1005.3
2018-04-16T05:56:15.169Z,1005.3
2018-04-16T05:57:17.547Z,1005.3
2018-04-16T05:58:19.938Z,1005.4
2018-04-16T05:59:22.305Z,1005.4
2018-04-16T06:00:24.703Z,1005.4
2018-04-16T06:01:27.095Z,1005.5
2018-04-16T06:02:29.748Z,1005.5
2018-04-16T06:03:32.132Z,1005.5
2018-04-16T06:04:34.513Z,1005.5
2018-04-16T06:05:36.888Z,1005.5
2018-04-16T06:06:39.330Z,1005.5
2018-04-16T06:07:42.039Z,1005.6
2018-04-16T06:08:44.427Z,1005.5
2018-04-16T06:09:47.083Z,1005.6
2018-04-16T06:10:49.466Z,1005.6
2018-04-16T06:11:51.847Z,1005.6
2018-04-16T06:12:54.808Z,1005.6
2018-04-16T06:13:57.195Z,1005.6
2018-04-16T06:14:59.574Z,1005.6
2018-04-16T06:16:01.953Z,1005.6
2018-04-16T06:17:04.331Z,1005.7
2018-04-16T06:18:06.714Z,1005.7
2018-04-16T06:19:09.441Z,1005.7
2018-04-16T06:20:12.494Z,1005.7
2018-04-16T06:21:14.884Z,1005.7
2018-04-16T06:22:17.272Z,1005.7
2018-04-16T06:23:19.653Z,1005.7
2018-04-16T06:24:22.025Z,1005.6
2018-04-16T06:25:24.400Z,1005.6
2018-04-16T06:26:26.789Z,1005.6
2018-04-16T06:27:29.256Z,1005.6
2018-04-16T06:28:31.547Z,1005.6
2018-04-16T06:29:33.931Z,1005.6
2018-04-16T06:30:36.311Z,1005.7
2018-04-16T06:31:38.697Z,1005.7
2018-04-16T06:32:41.079Z,1005.7
2018-04-16T06:33:43.446Z,1005.7
2018-04-16T06:34:45.831Z,1005.7
2018-04-16T06:35:48.209Z,1005.7
2018-04-16T06:36:51.292Z,1005.7
2018-04-16T06:37:53.623Z,1005.7
2018-04-16T06:38:56.270Z,1005.7
2018-04-16T06:39:59.042Z,1005.7
2018-04-16T06:41:01.433Z,1005.7
2018-04-16T06:42:03.805Z,1005.7
2018-04-16T06:43:06.185Z,1005.7
2018-04-16T06:44:08.563Z,1005.7
2018-04-16T06:45:11.220Z,1005.7
2018-04-16T06:46:13.997Z,1005.7
2018-04-16T06:47:16.375Z,1005.7
2018-04-16T06:48:18.748Z,1005.7
2018-04-16T06:49:21.137Z,1005.7
2018-04-16T06:50:23.519Z,1005.8
2018-04-16T06:51:25.903Z,1005.8
2018-04-16T06:52:28.557Z,1005.8
2018-04-16T06:53:30.954Z,1005.8
2018-04-16T06:54:33.326Z,1005.8
2018-04-16T06:55:36.373Z,1005.8
2018-04-16T06:56:38.750Z,1005.8
2018-04-16T06:57:41.522Z,1005.8
2018-04-16T06:58:43.893Z,1005.8
2018-04-16T06:59:46.687Z,1005.8
2018-04-16T07:00:50.057Z,1005.8
2018-04-16T07:01:53.986Z,1005.7
2018-04-16T07:02:57.660Z,1005.7
2018-04-16T07:04:00.391Z,1005.7
2018-04-16T07:05:03.090Z,1005.7
2018-04-16T07:06:06.266Z,1005.7
2018-04-16T07:07:09.557Z,1005.7
2018-04-16T07:08:13.847Z,1005.8
2018-04-16T07:09:16.807Z,1005.7
2018-04-16T07:10:19.807Z,1005.8
2018-04-16T07:11:22.496Z,1005.8
2018-04-16T07:12:25.274Z,1005.8
2018-04-16T07:13:28.608Z,1005.8
2018-04-16T07:14:30.992Z,1005.9
2018-04-16T07:15:34.273Z,1005.9
2018-04-16T07:16:36.646Z,1005.9
2018-04-16T07:17:40.002Z,1005.9
2018-04-16T07:18:43.064Z,1005.9
2018-04-16T07:19:45.443Z,1005.9
2018-04-16T07:20:48.107Z,1005.9
2018-04-16T07:21:51.073Z,1005.9
2018-04-16T07:22:53.833Z,1005.9
2018-04-16T07:23:56.232Z,1005.9
2018-04-16T07:24:58.998Z,1005.9
2018-04-16T07:26:01.668Z,1005.9
2018-04-16T07:27:04.342Z,1005.9
2018-04-16T07:28:06.744Z,1005.9
2018-04-16T07:29:09.530Z,1006
2018-04-16T07:30:11.917Z,1006
2018-04-16T07:31:14.287Z,1006
2018-04-16T07:32:16.662Z,1006
2018-04-16T07:33:19.052Z,1006
2018-04-16T07:34:21.769Z,1006
2018-04-16T07:35:24.555Z,1006
2018-04-16T07:36:26.931Z,1006
2018-04-16T07:37:29.312Z,1006
2018-04-16T07:38:32.085Z,1006
2018-04-16T07:39:34.460Z,1006
2018-04-16T07:40:36.840Z,1006
2018-04-16T07:41:39.228Z,1006
2018-04-16T07:42:41.603Z,1006
2018-04-16T07:43:44.365Z,1006
2018-04-16T07:44:46.669Z,1006
2018-04-16T07:45:49.040Z,1006.1
2018-04-16T07:46:51.423Z,1006.1
2018-04-16T07:47:53.818Z,1006.1
2018-04-16T07:48:56.207Z,1006.1
2018-04-16T07:49:58.941Z,1006.2
2018-04-16T07:51:01.335Z,1006.2
2018-04-16T07:52:03.715Z,1006.2
2018-04-16T07:53:06.388Z,1006.2
2018-04-16T07:54:09.056Z,1006.2
2018-04-16T07:55:11.454Z,1006.2
2018-04-16T07:56:14.126Z,1006.2
2018-04-16T07:57:16.781Z,1006.2
2018-04-16T07:58:19.170Z,1006.3
2018-04-16T07:59:21.551Z,1006.3
2018-04-16T08:00:23.936Z,1006.3
2018-04-16T08:01:26.326Z,1006.3
2018-04-16T08:02:29.062Z,1006.3
2018-04-16T08:03:31.444Z,1006.3
2018-04-16T08:04:34.225Z,1006.3
2018-04-16T08:05:36.988Z,1006.2
2018-04-16T08:06:39.422Z,1006.3
2018-04-16T08:07:42.099Z,1006.3
2018-04-16T08:08:44.481Z,1006.3
2018-04-16T08:09:46.878Z,1006.3
2018-04-16T08:10:49.257Z,1006.3
2018-04-16T08:11:51.632Z,1006.3
2018-04-16T08:12:54.029Z,1006.4
2018-04-16T08:13:56.414Z,1006.4
2018-04-16T08:14:58.798Z,1006.4
2018-04-16T08:16:01.582Z,1006.3
2018-04-16T08:17:04.364Z,1006.4
2018-04-16T08:18:07.029Z,1006.4
2018-04-16T08:19:09.432Z,1006.4
2018-04-16T08:20:12.200Z,1006.4
2018-04-16T08:21:14.570Z,1006.4
2018-04-16T08:22:17.674Z,1006.5
2018-04-16T08:23:20.393Z,1006.5
2018-04-16T08:24:22.775Z,1006.5
2018-04-16T08:25:25.166Z,1006.5
2018-04-16T08:26:27.553Z,1006.5
2018-04-16T08:27:29.935Z,1006.5
2018-04-16T08:28:32.616Z,1006.5
2018-04-16T08:29:34.996Z,1006.5
2018-04-16T08:30:37.374Z,1006.5
2018-04-16T08:31:40.042Z,1006.5
2018-04-16T08:32:42.819Z,1006.5
2018-04-16T08:33:45.201Z,1006.5
2018-04-16T08:34:47.596Z,1006.5
2018-04-16T08:35:49.972Z,1006.5
2018-04-16T08:36:52.739Z,1006.5
2018-04-16T08:37:55.134Z,1006.4
2018-04-16T08:38:57.517Z,1006.5
2018-04-16T08:39:59.905Z,1006.5
2018-04-16T08:41:02.681Z,1006.5
2018-04-16T08:42:05.061Z,1006.5
2018-04-16T08:43:07.457Z,1006.5
2018-04-16T08:44:09.846Z,1006.5
2018-04-16T08:45:12.216Z,1006.5
2018-04-16T08:46:14.885Z,1006.4
2018-04-16T08:47:17.273Z,1006.5
2018-04-16T08:48:19.653Z,1006.5
2018-04-16T08:49:22.053Z,1006.5
2018-04-16T08:50:24.719Z,1006.5
2018-04-16T08:51:27.112Z,1006.5
2018-04-16T08:52:29.897Z,1006.5
2018-04-16T08:53:33.053Z,1006.5
2018-04-16T08:54:35.457Z,1006.5
2018-04-16T08:55:38.221Z,1006.5
2018-04-16T08:56:40.606Z,1006.4
2018-04-16T08:57:42.990Z,1006.5
2018-04-16T08:58:45.376Z,1006.4
2018-04-16T08:59:47.913Z,1006.4
2018-04-16T09:00:50.161Z,1006.4
2018-04-16T09:01:52.547Z,1006.4
2018-04-16T09:02:54.939Z,1006.5
2018-04-16T09:03:58.000Z,1006.5
2018-04-16T09:05:00.409Z,1006.5
2018-04-16T09:06:03.098Z,1006.5
2018-04-16T09:07:05.764Z,1006.6
2018-04-16T09:08:08.434Z,1006.6
2018-04-16T09:09:10.835Z,1006.6
2018-04-16T09:10:13.221Z,1006.6
2018-04-16T09:11:15.893Z,1006.6
2018-04-16T09:12:18.285Z,1006.6
2018-04-16T09:13:20.681Z,1006.6
2018-04-16T09:14:23.067Z,1006.6
2018-04-16T09:15:25.752Z,1006.6
2018-04-16T09:16:28.137Z,1006.6
2018-04-16T09:17:30.528Z,1006.6
2018-04-16T09:18:33.302Z,1006.6
2018-04-16T09:19:35.693Z,1006.6
2018-04-16T09:20:38.079Z,1006.6
2018-04-16T09:21:40.472Z,1006.6
2018-04-16T09:22:42.854Z,1006.6
2018-04-16T09:23:45.629Z,1006.5
2018-04-16T09:24:48.010Z,1006.5
2018-04-16T09:25:50.416Z,1006.5
2018-04-16T09:26:52.788Z,1006.5
2018-04-16T09:27:55.482Z,1006.5
2018-04-16T09:28:57.868Z,1006.6
2018-04-16T09:30:00.257Z,1006.5
2018-04-16T09:31:02.645Z,1006.5
2018-04-16T09:32:05.047Z,1006.5
2018-04-16T09:33:07.419Z,1006.5
2018-04-16T09:34:09.818Z,1006.5
2018-04-16T09:35:12.199Z,1006.6
2018-04-16T09:36:14.881Z,1006.5
2018-04-16T09:37:17.276Z,1006.5
2018-04-16T09:38:19.825Z,1006.5
2018-04-16T09:39:23.314Z,1006.5
2018-04-16T09:40:26.904Z,1006.5
2018-04-16T09:41:29.287Z,1006.5
2018-04-16T09:42:31.701Z,1006.5
2018-04-16T09:43:34.102Z,1006.5
2018-04-16T09:44:51.525Z,1006.5
2018-04-16T09:46:20.012Z,1006.4
2018-04-16T09:47:22.407Z,1006.4
2018-04-16T09:48:25.085Z,1006.4
2018-04-16T09:49:27.475Z,1006.4
2018-04-16T09:50:29.862Z,1006.4
2018-04-16T09:51:32.939Z,1006.4
2018-04-16T09:52:35.671Z,1006.5
2018-04-16T09:53:38.065Z,1006.4
2018-04-16T09:54:40.727Z,1006.4
2018-04-16T09:55:43.402Z,1006.4
2018-04-16T09:56:45.793Z,1006.4
2018-04-16T09:57:48.184Z,1006.4
2018-04-16T09:58:51.242Z,1006.4
2018-04-16T09:59:53.917Z,1006.4
2018-04-16T10:00:56.706Z,1006.4
2018-04-16T10:01:59.060Z,1006.3
2018-04-16T10:03:01.448Z,1006.4
2018-04-16T10:04:03.843Z,1006.4
2018-04-16T10:05:06.236Z,1006.4
2018-04-16T10:06:08.913Z,1006.3
2018-04-16T10:07:11.309Z,1006.3
2018-04-16T10:08:13.706Z,1006.3
2018-04-16T10:09:16.095Z,1006.3
2018-04-16T10:10:18.501Z,1006.3
2018-04-16T10:11:20.899Z,1006.3
2018-04-16T10:12:23.713Z,1006.3
2018-04-16T10:13:26.105Z,1006.3
2018-04-16T10:14:28.496Z,1006.3
2018-04-16T10:15:30.883Z,1006.3
2018-04-16T10:16:33.281Z,1006.3
2018-04-16T10:17:35.670Z,1006.3
2018-04-16T10:18:38.752Z,1006.3
2018-04-16T10:19:41.154Z,1006.3
2018-04-16T10:20:43.548Z,1006.3
2018-04-16T10:21:46.232Z,1006.3
2018-04-16T10:22:48.903Z,1006.3
2018-04-16T10:23:51.308Z,1006.3
2018-04-16T10:24:53.692Z,1006.3
2018-04-16T10:25:56.079Z,1006.3
2018-04-16T10:26:58.476Z,1006.3
2018-04-16T10:28:00.865Z,1006.3
2018-04-16T10:29:03.541Z,1006.3
2018-04-16T10:30:05.945Z,1006.3
2018-04-16T10:31:08.333Z,1006.3
2018-04-16T10:32:10.734Z,1006.3
2018-04-16T10:33:13.133Z,1006.3
2018-04-16T10:34:15.526Z,1006.3
2018-04-16T10:35:17.931Z,1006.3
2018-04-16T10:36:20.329Z,1006.3
2018-04-16T10:37:22.719Z,1006.2
2018-04-16T10:38:25.116Z,1006.2
2018-04-16T10:39:27.506Z,1006.2
2018-04-16T10:40:29.939Z,1006.2
2018-04-16T10:41:51.501Z,1006.3
2018-04-16T10:42:53.894Z,1006.3
2018-04-16T10:43:56.302Z,1006.3
2018-04-16T10:44:58.984Z,1006.3
2018-04-16T10:46:01.656Z,1006.3
2018-04-16T10:47:04.048Z,1006.3
2018-04-16T10:48:06.438Z,1006.3
2018-04-16T10:49:08.826Z,1006.3
2018-04-16T10:50:11.228Z,1006.2
2018-04-16T10:51:13.622Z,1006.2
2018-04-16T10:52:16.021Z,1006.3
2018-04-16T10:53:18.407Z,1006.3
2018-04-16T10:54:20.812Z,1006.3
2018-04-16T10:55:23.199Z,1006.2
2018-04-16T10:56:25.976Z,1006.2
2018-04-16T10:57:28.372Z,1006.2
2018-04-16T10:58:30.767Z,1006.2
2018-04-16T10:59:33.160Z,1006.2
2018-04-16T11:00:35.559Z,1006.2
2018-04-16T11:01:37.936Z,1006.3
2018-04-16T11:02:40.329Z,1006.2
2018-04-16T11:03:42.731Z,1006.3
2018-04-16T11:04:45.128Z,1006.3
2018-04-16T11:05:47.515Z,1006.3
2018-04-16T11:06:49.913Z,1006.3
2018-04-16T11:07:52.299Z,1006.2
2018-04-16T11:08:54.710Z,1006.3
2018-04-16T11:09:57.102Z,1006.3
2018-04-16T11:10:59.497Z,1006.2
2018-04-16T11:12:01.888Z,1006.3
2018-04-16T11:13:04.995Z,1006.3
2018-04-16T11:14:07.348Z,1006.3
2018-04-16T11:15:09.747Z,1006.3
2018-04-16T11:16:12.127Z,1006.3
2018-04-16T11:17:14.526Z,1006.4
2018-04-16T11:18:17.212Z,1006.4
2018-04-16T11:19:19.602Z,1006.3
2018-04-16T11:20:22.291Z,1006.4
2018-04-16T11:21:24.964Z,1006.4
2018-04-16T11:22:27.361Z,1006.3
2018-04-16T11:23:29.755Z,1006.3
2018-04-16T11:24:32.151Z,1006.3
2018-04-16T11:25:34.834Z,1006.4
2018-04-16T11:26:37.443Z,1006.4
2018-04-16T11:27:39.826Z,1006.4
2018-04-16T11:28:42.503Z,1006.3
2018-04-16T11:29:44.906Z,1006.4
2018-04-16T11:30:47.297Z,1006.4
2018-04-16T11:31:49.706Z,1006.4
2018-04-16T11:32:52.491Z,1006.4
2018-04-16T11:33:54.881Z,1006.3
2018-04-16T11:34:57.716Z,1006.3
2018-04-16T11:36:00.065Z,1006.3
2018-04-16T11:37:02.461Z,1006.3
2018-04-16T11:38:04.863Z,1006.3
2018-04-16T11:39:07.267Z,1006.4
2018-04-16T11:40:10.241Z,1006.4
2018-04-16T11:41:12.754Z,1006.4
2018-04-16T11:42:15.414Z,1006.4
2018-04-16T11:43:17.811Z,1006.3
2018-04-16T11:44:20.212Z,1006.4
2018-04-16T11:45:22.602Z,1006.4
2018-04-16T11:46:25.397Z,1006.4
2018-04-16T11:47:27.794Z,1006.5
2018-04-16T11:48:30.220Z,1006.5
2018-04-16T11:49:32.613Z,1006.5
2018-04-16T11:50:35.008Z,1006.5
2018-04-16T11:51:37.698Z,1006.5
2018-04-16T11:52:40.080Z,1006.5
2018-04-16T11:53:42.478Z,1006.6
2018-04-16T11:54:44.879Z,1006.6
2018-04-16T11:55:47.269Z,1006.5
2018-04-16T11:56:49.969Z,1006.5
2018-04-16T11:57:52.684Z,1006.6
2018-04-16T11:58:55.737Z,1006.6
2018-04-16T11:59:58.422Z,1006.6
2018-04-16T12:01:00.820Z,1006.6
2018-04-16T12:02:03.218Z,1006.6
2018-04-16T12:03:05.611Z,1006.6
2018-04-16T12:04:08.011Z,1006.7
2018-04-16T12:05:10.686Z,1006.7
2018-04-16T12:06:13.095Z,1006.7
2018-04-16T12:07:15.532Z,1006.6
2018-04-16T12:08:18.456Z,1006.7
2018-04-16T12:09:20.842Z,1006.6
2018-04-16T12:10:23.253Z,1006.6
2018-04-16T12:11:25.958Z,1006.6
2018-04-16T12:12:28.725Z,1006.6
2018-04-16T12:13:31.113Z,1006.6
2018-04-16T12:14:33.519Z,1006.6
2018-04-16T12:15:36.315Z,1006.6
2018-04-16T12:16:38.765Z,1006.6
2018-04-16T12:17:41.458Z,1006.6
2018-04-16T12:18:43.848Z,1006.6
2018-04-16T12:19:46.637Z,1006.6
2018-04-16T12:20:49.032Z,1006.6
2018-04-16T12:21:51.504Z,1006.6
2018-04-16T12:22:53.824Z,1006.6
2018-04-16T12:23:56.227Z,1006.6
2018-04-16T12:24:58.604Z,1006.5
2018-04-16T12:26:01.019Z,1006.5
2018-04-16T12:27:03.402Z,1006.5
2018-04-16T12:28:06.090Z,1006.5
2018-04-16T12:29:08.517Z,1006.5
2018-04-16T12:30:11.175Z,1006.5
2018-04-16T12:31:13.563Z,1006.6
2018-04-16T12:32:16.351Z,1006.6
2018-04-16T12:33:18.742Z,1006.7
2018-04-16T12:34:21.201Z,1006.6
2018-04-16T12:35:23.627Z,1006.7
2018-04-16T12:36:26.028Z,1006.6
2018-04-16T12:37:28.426Z,1006.6
2018-04-16T12:38:30.824Z,1006.6
2018-04-16T12:39:33.207Z,1006.6
2018-04-16T12:40:35.613Z,1006.6
2018-04-16T12:41:38.286Z,1006.6
2018-04-16T12:42:40.965Z,1006.6
2018-04-16T12:43:43.364Z,1006.6
2018-04-16T12:44:45.755Z,1006.6
2018-04-16T12:45:48.153Z,1006.7
2018-04-16T12:46:50.834Z,1006.7
2018-04-16T12:47:53.225Z,1006.6
2018-04-16T12:48:55.617Z,1006.7
2018-04-16T12:49:58.005Z,1006.6
2018-04-16T12:51:00.411Z,1006.7
2018-04-16T12:52:03.094Z,1006.7
2018-04-16T12:53:05.491Z,1006.7
2018-04-16T12:54:07.883Z,1006.7
2018-04-16T12:55:10.279Z,1006.7
2018-04-16T12:56:12.677Z,1006.7
2018-04-16T12:57:15.460Z,1006.8
2018-04-16T12:58:17.847Z,1006.7
2018-04-16T12:59:20.237Z,1006.8
2018-04-16T13:00:22.638Z,1006.7
2018-04-16T13:01:25.039Z,1006.8
2018-04-16T13:02:27.838Z,1006.7